X  Chiuso Dati meteorologici dell'aviazione (METAR)     LIML Linate
Temperatura
16°C Temperatura
12°C Punto di rugiada
77% Umidità



Vento
10 KM/H
6 MPH
3 M/S
5 KTS



70°
ENE
Condizioni attuali

Parzialmente nuvoloso Parzialmente nuvoloso
Pressione 1016.92 (hPa) - 30.03 (inHg)
Visibilità 6.2 (miglio) - 10 (km)
Aeroporto
Codice-Aeroporto LIML

Posizione: Linate
Distanza: 100 (km)

Metar:
LIML 010220Z AUTO 07005KT 9999 FEW056/// 16/12 Q1017

Ore: 01-06-2020 04:20 CEST